Time;durP1;ratioP1;P1;durP2;ratioP2;P2;SDS_P1;SDS_P2;PMS_P1;PMS_P2;Temp;Humidity;BMP_temperature;BMP_pressure;BME280_temperature;BME280_humidity;BME280_pressure;Samples;Min_cycle;Max_cycle;Signal;HPM_P1;HPM_P2
2022/07/29 00:02:15;;;;;;;;;;;27.60;87.90;;;;;;5091151;28;19956;-71
2022/07/29 00:04:41;;;;;;;;;;;27.60;87.80;;;;;;5091649;28;19998;-71
2022/07/29 00:07:06;;;;;;;;;;;27.60;87.90;;;;;;5091232;28;19944;-70
2022/07/29 00:09:32;;;;;;;;;;;27.60;87.90;;;;;;5091287;28;19904;-70
2022/07/29 00:11:59;;;;;;;;;;;27.60;87.00;;;;;;5091215;28;19916;-70
2022/07/29 00:14:26;;;;;;;;;;;27.70;87.20;;;;;;5089705;28;19963;-70
2022/07/29 00:16:51;;;;;;;;;;;27.70;86.70;;;;;;5091092;28;19908;-70
2022/07/29 00:19:17;;;;;;;;;;;27.80;86.50;;;;;;5091404;28;19957;-70
2022/07/29 00:21:43;;;;;;;;;;;27.80;86.70;;;;;;5090987;28;19957;-70
2022/07/29 00:24:09;;;;;;;;;;;27.70;86.60;;;;;;5090983;28;20241;-71
2022/07/29 00:26:35;;;;;;;;;;;27.70;86.50;;;;;;5090960;28;19916;-71
2022/07/29 00:29:01;;;;;;;;;;;27.80;86.60;;;;;;5090879;28;19904;-71
2022/07/29 00:31:27;;;;;;;;;;;27.70;86.60;;;;;;5091299;28;20305;-71
2022/07/29 00:33:53;;;;;;;;;;;27.80;86.50;;;;;;5091288;28;20399;-70
2022/07/29 00:36:20;;;;;;;;;;;27.80;86.60;;;;;;5090953;28;19904;-70
2022/07/29 00:38:50;;;;;;;;;;;27.70;86.80;;;;;;5091118;28;19904;-70
2022/07/29 00:41:16;;;;;;;;;;;27.70;87.00;;;;;;5089844;28;20269;-70
2022/07/29 00:43:42;;;;;;;;;;;27.70;87.10;;;;;;5090921;28;20260;-70
2022/07/29 00:46:08;;;;;;;;;;;27.60;87.30;;;;;;5090920;28;19972;-71
2022/07/29 00:48:34;;;;;;;;;;;27.50;87.40;;;;;;5090707;28;19930;-70
2022/07/29 00:51:01;;;;;;;;;;;27.50;87.50;;;;;;5090844;28;19911;-70
2022/07/29 00:53:27;;;;;;;;;;;27.50;87.70;;;;;;5088983;28;19961;-69
2022/07/29 00:55:54;;;;;;;;;;;27.40;87.90;;;;;;5091028;28;19908;-70
2022/07/29 00:58:20;;;;;;;;;;;27.30;88.30;;;;;;5090426;28;19904;-70
2022/07/29 01:00:46;;;;;;;;;;;27.20;88.60;;;;;;5089160;28;20324;-70
2022/07/29 01:03:12;;;;;;;;;;;27.20;88.60;;;;;;5090473;28;19935;-70
2022/07/29 01:05:39;;;;;;;;;;;27.10;88.80;;;;;;5089021;28;19911;-70
2022/07/29 01:08:05;;;;;;;;;;;27.10;88.90;;;;;;5089014;28;19904;-70
2022/07/29 01:10:31;;;;;;;;;;;27.10;88.90;;;;;;5091778;28;19904;-69
2022/07/29 01:12:58;;;;;;;;;;;27.10;89.10;;;;;;5093096;28;19904;-70
2022/07/29 01:15:24;;;;;;;;;;;27.10;89.20;;;;;;5094471;28;19970;-70
2022/07/29 01:17:59;;;;;;;;;;;27.00;89.40;;;;;;5093981;28;19911;-70
2022/07/29 01:20:44;;;;;;;;;;;27.00;89.50;;;;;;5093625;28;19916;-70
2022/07/29 01:23:09;;;;;;;;;;;27.00;89.70;;;;;;5093956;28;20331;-70
2022/07/29 01:25:54;;;;;;;;;;;27.00;89.70;;;;;;5094099;28;19923;-71
2022/07/29 01:28:32;;;;;;;;;;;27.00;89.80;;;;;;5094061;28;19911;-71
2022/07/29 01:31:00;;;;;;;;;;;26.90;90.00;;;;;;5094301;28;19911;-71
2022/07/29 01:36:13;;;;;;;;;;;26.90;90.10;;;;;;5094441;28;19914;-71
2022/07/29 01:38:40;;;;;;;;;;;26.90;90.20;;;;;;5093947;28;19946;-71
2022/07/29 01:41:08;;;;;;;;;;;26.90;90.30;;;;;;5094035;28;20007;-71
2022/07/29 01:43:37;;;;;;;;;;;26.90;90.30;;;;;;5093956;28;19934;-71
2022/07/29 01:46:05;;;;;;;;;;;26.90;90.40;;;;;;5094134;28;20348;-71
2022/07/29 01:48:37;;;;;;;;;;;26.90;90.40;;;;;;5093685;28;19991;-71
2022/07/29 01:51:13;;;;;;;;;;;26.90;90.50;;;;;;5093960;28;19956;-71
2022/07/29 01:53:54;;;;;;;;;;;26.90;90.70;;;;;;5093637;28;19911;-71
2022/07/29 01:56:22;;;;;;;;;;;26.90;90.70;;;;;;5093995;28;19904;-71
2022/07/29 01:58:49;;;;;;;;;;;26.80;90.90;;;;;;5093670;28;19949;-71
2022/07/29 02:01:16;;;;;;;;;;;26.80;91.00;;;;;;5093614;28;20006;-71
2022/07/29 02:03:43;;;;;;;;;;;26.80;91.10;;;;;;5093296;28;19919;-71
2022/07/29 02:06:10;;;;;;;;;;;26.80;91.20;;;;;;5093493;28;19916;-71
2022/07/29 02:08:37;;;;;;;;;;;26.80;91.30;;;;;;5093731;28;20408;-70
2022/07/29 02:11:04;;;;;;;;;;;26.70;91.40;;;;;;5093391;28;19904;-71
2022/07/29 02:13:31;;;;;;;;;;;26.70;91.60;;;;;;5093411;28;19965;-71
2022/07/29 02:15:58;;;;;;;;;;;26.80;91.90;;;;;;5093309;28;19904;-71
2022/07/29 02:18:25;;;;;;;;;;;26.80;92.00;;;;;;5093241;28;19957;-71
2022/07/29 02:20:53;;;;;;;;;;;26.80;92.10;;;;;;5092561;28;19958;-71
2022/07/29 02:23:20;;;;;;;;;;;26.80;92.10;;;;;;5092694;28;19930;-71
2022/07/29 02:25:49;;;;;;;;;;;26.80;92.30;;;;;;5092596;28;20002;-71
2022/07/29 02:28:16;;;;;;;;;;;26.80;92.30;;;;;;5092607;28;19904;-71
2022/07/29 02:30:43;;;;;;;;;;;26.70;92.40;;;;;;5092582;28;19961;-71
2022/07/29 02:33:10;;;;;;;;;;;26.70;92.40;;;;;;5092793;28;20245;-71
2022/07/29 02:35:36;;;;;;;;;;;26.70;92.50;;;;;;5092691;28;19999;-71
2022/07/29 02:40:48;;;;;;;;;;;26.70;92.80;;;;;;5092815;28;20014;-71
2022/07/29 02:43:14;;;;;;;;;;;26.70;92.90;;;;;;5092734;28;19912;-71
2022/07/29 02:45:40;;;;;;;;;;;26.70;92.90;;;;;;5090902;28;20399;-71
2022/07/29 02:48:12;;;;;;;;;;;26.70;92.80;;;;;;5092456;28;19908;-71
2022/07/29 02:50:41;;;;;;;;;;;26.60;92.80;;;;;;5092338;28;19961;-70
2022/07/29 02:53:16;;;;;;;;;;;26.70;92.90;;;;;;5092615;28;19904;-71
2022/07/29 02:55:48;;;;;;;;;;;26.60;92.90;;;;;;5092680;28;20260;-70
2022/07/29 02:58:19;;;;;;;;;;;26.60;92.90;;;;;;5092522;28;20013;-71
2022/07/29 03:00:46;;;;;;;;;;;26.70;93.00;;;;;;5092694;28;20272;-70
2022/07/29 03:03:14;;;;;;;;;;;26.60;93.00;;;;;;5092279;28;19912;-71
2022/07/29 03:05:40;;;;;;;;;;;26.60;92.80;;;;;;5092331;28;19908;-70
2022/07/29 03:08:08;;;;;;;;;;;26.70;92.80;;;;;;5092636;28;19915;-71
2022/07/29 03:10:36;;;;;;;;;;;26.70;92.80;;;;;;5092221;28;19939;-70
2022/07/29 03:13:03;;;;;;;;;;;26.60;93.00;;;;;;5089880;28;19956;-71
2022/07/29 03:15:29;;;;;;;;;;;26.60;92.90;;;;;;5091236;28;19998;-70
2022/07/29 03:17:55;;;;;;;;;;;26.70;92.60;;;;;;5091192;28;20355;-71
2022/07/29 03:20:21;;;;;;;;;;;26.70;92.70;;;;;;5092326;28;20301;-71
2022/07/29 03:22:48;;;;;;;;;;;26.70;92.70;;;;;;5092652;28;20315;-71
2022/07/29 03:25:15;;;;;;;;;;;26.70;92.70;;;;;;5092430;28;19904;-70
2022/07/29 03:27:41;;;;;;;;;;;26.70;92.60;;;;;;5092407;28;19911;-70
2022/07/29 03:30:07;;;;;;;;;;;26.70;92.50;;;;;;5092795;28;19904;-70
2022/07/29 03:32:33;;;;;;;;;;;26.80;92.40;;;;;;5092285;28;19943;-71
2022/07/29 03:34:59;;;;;;;;;;;26.70;92.40;;;;;;5091873;28;19915;-70
2022/07/29 03:37:25;;;;;;;;;;;26.70;92.70;;;;;;5092671;28;19904;-71
2022/07/29 03:39:52;;;;;;;;;;;26.70;93.00;;;;;;5092245;28;19956;-70
2022/07/29 03:42:20;;;;;;;;;;;26.70;93.20;;;;;;5092133;28;19919;-71
2022/07/29 03:44:48;;;;;;;;;;;26.60;93.20;;;;;;5092121;28;20006;-70
2022/07/29 03:47:14;;;;;;;;;;;26.60;93.30;;;;;;5092143;28;19904;-70
2022/07/29 03:49:40;;;;;;;;;;;26.60;93.50;;;;;;5092266;28;19904;-70
2022/07/29 03:52:07;;;;;;;;;;;26.60;93.60;;;;;;5091946;28;20072;-70
2022/07/29 03:54:33;;;;;;;;;;;26.60;93.60;;;;;;5091859;28;19904;-70
2022/07/29 03:57:00;;;;;;;;;;;26.60;93.80;;;;;;5092212;28;20290;-70
2022/07/29 03:59:26;;;;;;;;;;;26.60;93.80;;;;;;5090402;28;19911;-71
2022/07/29 04:01:52;;;;;;;;;;;26.60;93.80;;;;;;5092060;28;19972;-71
2022/07/29 04:04:17;;;;;;;;;;;26.50;93.90;;;;;;5091916;28;20004;-70
2022/07/29 04:06:44;;;;;;;;;;;26.50;93.90;;;;;;5091985;28;20340;-71
2022/07/29 04:09:11;;;;;;;;;;;26.50;93.90;;;;;;5091684;28;19908;-70
2022/07/29 04:11:39;;;;;;;;;;;26.40;93.90;;;;;;5091659;28;20288;-71
2022/07/29 04:14:04;;;;;;;;;;;26.50;94.30;;;;;;5091408;28;19981;-71
2022/07/29 04:16:30;;;;;;;;;;;26.50;94.00;;;;;;5091664;28;19904;-71
2022/07/29 04:18:56;;;;;;;;;;;26.50;94.00;;;;;;5092341;28;20363;-71
2022/07/29 04:21:22;;;;;;;;;;;26.50;93.90;;;;;;5093171;28;19959;-71
2022/07/29 04:23:49;;;;;;;;;;;26.50;93.90;;;;;;5093597;28;19912;-70
2022/07/29 04:26:16;;;;;;;;;;;26.60;93.70;;;;;;5092638;28;19957;-70
2022/07/29 04:28:42;;;;;;;;;;;26.60;93.60;;;;;;5092377;28;19943;-71
2022/07/29 04:31:08;;;;;;;;;;;26.70;93.40;;;;;;5092886;28;19955;-70
2022/07/29 04:33:34;;;;;;;;;;;26.70;93.30;;;;;;5092617;28;19904;-70
2022/07/29 04:36:00;;;;;;;;;;;26.80;93.20;;;;;;5092755;28;20012;-71
2022/07/29 04:38:26;;;;;;;;;;;26.90;93.10;;;;;;5093102;28;19908;-71
2022/07/29 04:40:52;;;;;;;;;;;26.90;93.60;;;;;;5093329;28;19904;-71
2022/07/29 04:43:18;;;;;;;;;;;26.90;93.40;;;;;;5093012;28;19919;-70
2022/07/29 04:45:44;;;;;;;;;;;26.90;93.40;;;;;;5096022;28;19904;-70
2022/07/29 04:48:10;;;;;;;;;;;26.80;93.50;;;;;;5097451;28;19904;-70
2022/07/29 04:50:40;;;;;;;;;;;26.80;93.60;;;;;;5097196;28;19998;-70
2022/07/29 04:53:06;;;;;;;;;;;26.70;93.70;;;;;;5095448;28;20045;-70
2022/07/29 04:55:32;;;;;;;;;;;26.70;93.90;;;;;;5096498;28;20034;-70
2022/07/29 04:57:57;;;;;;;;;;;26.60;93.90;;;;;;5096604;28;19940;-70
2022/07/29 05:00:23;;;;;;;;;;;26.60;93.90;;;;;;5097241;28;20284;-71
2022/07/29 05:02:49;;;;;;;;;;;26.60;93.90;;;;;;5096434;28;19919;-70
2022/07/29 05:05:15;;;;;;;;;;;26.70;93.50;;;;;;5096978;28;20260;-70
2022/07/29 05:07:41;;;;;;;;;;;26.60;93.20;;;;;;5096439;28;20271;-70
2022/07/29 05:10:08;;;;;;;;;;;26.70;93.20;;;;;;5096244;28;19908;-70
2022/07/29 05:12:34;;;;;;;;;;;26.70;93.20;;;;;;5096363;28;19999;-71
2022/07/29 05:15:00;;;;;;;;;;;26.80;93.20;;;;;;5096531;28;19999;-71
2022/07/29 05:17:26;;;;;;;;;;;27.20;93.00;;;;;;5096422;28;19904;-71
2022/07/29 05:19:52;;;;;;;;;;;27.50;92.50;;;;;;5096210;28;19908;-71
2022/07/29 05:22:18;;;;;;;;;;;27.70;92.20;;;;;;5096512;28;20003;-71
2022/07/29 05:24:44;;;;;;;;;;;28.00;91.90;;;;;;5094911;28;20322;-71
2022/07/29 05:27:10;;;;;;;;;;;28.90;90.80;;;;;;5094768;28;19904;-71
2022/07/29 05:29:36;;;;;;;;;;;29.90;89.00;;;;;;5096257;28;19952;-71
2022/07/29 05:32:02;;;;;;;;;;;31.10;86.30;;;;;;5095831;28;20253;-70
2022/07/29 05:34:28;;;;;;;;;;;32.30;83.70;;;;;;5096576;28;19939;-70
2022/07/29 05:36:54;;;;;;;;;;;33.30;80.90;;;;;;5095954;28;19960;-70
2022/07/29 05:39:20;;;;;;;;;;;34.30;79.20;;;;;;5096070;28;20340;-70
2022/07/29 05:41:46;;;;;;;;;;;35.60;76.40;;;;;;5095932;28;19943;-70
2022/07/29 05:44:13;;;;;;;;;;;36.50;74.70;;;;;;5096255;28;20356;-70
2022/07/29 05:46:39;;;;;;;;;;;37.90;72.20;;;;;;5096040;28;20362;-70
2022/07/29 05:49:06;;;;;;;;;;;38.80;69.80;;;;;;5095880;28;19904;-70
2022/07/29 05:51:32;;;;;;;;;;;40.10;68.00;;;;;;5095221;28;20298;-71
2022/07/29 05:53:58;;;;;;;;;;;40.20;66.60;;;;;;5095739;28;19951;-70
2022/07/29 05:56:24;;;;;;;;;;;40.10;66.50;;;;;;5094612;28;19962;-72
2022/07/29 05:58:50;;;;;;;;;;;40.00;66.50;;;;;;5095489;28;20260;-71
2022/07/29 06:01:17;;;;;;;;;;;41.00;65.40;;;;;;5095775;28;19908;-71
2022/07/29 06:03:43;;;;;;;;;;;41.90;63.80;;;;;;5095140;28;19952;-71
2022/07/29 06:06:09;;;;;;;;;;;42.80;62.10;;;;;;5095662;28;20298;-71
2022/07/29 06:08:36;;;;;;;;;;;43.00;61.20;;;;;;5095344;28;20003;-72
2022/07/29 06:11:02;;;;;;;;;;;43.60;60.20;;;;;;5095253;28;19911;-71
2022/07/29 06:13:28;;;;;;;;;;;43.70;59.80;;;;;;5095036;28;20012;-72
2022/07/29 06:15:53;;;;;;;;;;;44.20;59.00;;;;;;5093649;28;20359;-71
2022/07/29 06:18:20;;;;;;;;;;;44.80;57.60;;;;;;5095247;28;20388;-72
2022/07/29 06:20:46;;;;;;;;;;;44.80;57.60;;;;;;5094900;28;19920;-72
2022/07/29 06:23:12;;;;;;;;;;;45.50;57.00;;;;;;5095123;28;19912;-71
2022/07/29 06:25:39;;;;;;;;;;;45.40;56.60;;;;;;5095044;28;19911;-72
2022/07/29 06:28:05;;;;;;;;;;;46.10;55.30;;;;;;5094774;28;20268;-72
2022/07/29 06:30:31;;;;;;;;;;;46.80;54.30;;;;;;5094881;28;19904;-72
2022/07/29 06:32:57;;;;;;;;;;;47.40;53.30;;;;;;5093507;28;19908;-72
2022/07/29 06:35:22;;;;;;;;;;;47.50;53.00;;;;;;5094941;28;20341;-72
2022/07/29 06:37:48;;;;;;;;;;;48.10;52.40;;;;;;5095623;28;20348;-72
2022/07/29 06:42:58;;;;;;;;;;;49.00;51.20;;;;;;5094783;28;19919;-72
2022/07/29 06:45:24;;;;;;;;;;;49.70;50.10;;;;;;5095068;28;19923;-72
2022/07/29 06:47:50;;;;;;;;;;;50.20;49.40;;;;;;5094705;28;20318;-72
2022/07/29 06:50:16;;;;;;;;;;;50.60;48.70;;;;;;5094809;28;19904;-72
2022/07/29 06:52:41;;;;;;;;;;;50.40;47.60;;;;;;5095109;28;19904;-72
2022/07/29 06:55:07;;;;;;;;;;;50.60;47.60;;;;;;5094685;28;19964;-72
2022/07/29 06:57:33;;;;;;;;;;;51.00;47.20;;;;;;5094960;28;19904;-73
2022/07/29 06:59:59;;;;;;;;;;;51.00;46.10;;;;;;5094697;28;20245;-72
2022/07/29 07:02:25;;;;;;;;;;;51.10;46.20;;;;;;5094185;28;19912;-72
2022/07/29 07:04:51;;;;;;;;;;;51.00;46.20;;;;;;5092935;28;19944;-72
2022/07/29 07:07:17;;;;;;;;;;;50.30;45.60;;;;;;5094252;28;19995;-72
2022/07/29 07:09:43;;;;;;;;;;;49.40;46.10;;;;;;5093721;28;19933;-72
2022/07/29 07:12:09;;;;;;;;;;;49.50;46.30;;;;;;5094244;28;19991;-72
2022/07/29 07:14:35;;;;;;;;;;;48.60;46.00;;;;;;5094373;28;20006;-72
2022/07/29 07:17:03;;;;;;;;;;;49.00;46.30;;;;;;5094106;28;20402;-72
2022/07/29 07:19:28;;;;;;;;;;;49.20;46.60;;;;;;5093742;28;19911;-72
2022/07/29 07:21:54;;;;;;;;;;;49.00;46.80;;;;;;5093690;28;19928;-71
2022/07/29 07:24:20;;;;;;;;;;;48.90;47.20;;;;;;5093706;28;19973;-72
2022/07/29 07:26:46;;;;;;;;;;;48.60;46.80;;;;;;5092489;28;19904;-71
2022/07/29 07:29:12;;;;;;;;;;;48.00;47.60;;;;;;5092681;28;19904;-71
2022/07/29 07:31:38;;;;;;;;;;;46.70;47.80;;;;;;5093667;28;19931;-71
2022/07/29 07:34:04;;;;;;;;;;;45.70;49.10;;;;;;5093575;28;20000;-71
2022/07/29 07:36:30;;;;;;;;;;;44.80;50.30;;;;;;5093703;28;19904;-71
2022/07/29 07:38:55;;;;;;;;;;;43.80;52.20;;;;;;5093589;28;19904;-71
2022/07/29 07:41:22;;;;;;;;;;;43.30;52.00;;;;;;5094059;28;19904;-72
2022/07/29 07:43:48;;;;;;;;;;;42.20;53.00;;;;;;5093390;28;20405;-70
2022/07/29 07:46:14;;;;;;;;;;;40.60;54.20;;;;;;5093335;28;19995;-70
2022/07/29 07:48:40;;;;;;;;;;;40.10;56.00;;;;;;5093085;28;19964;-70
2022/07/29 07:51:07;;;;;;;;;;;40.20;56.20;;;;;;5092363;28;19995;-71
2022/07/29 07:53:33;;;;;;;;;;;39.80;55.80;;;;;;5092427;28;20355;-71
2022/07/29 07:55:59;;;;;;;;;;;39.60;56.60;;;;;;5090904;28;19991;-70
2022/07/29 07:58:25;;;;;;;;;;;39.70;56.80;;;;;;5092364;28;20022;-71
2022/07/29 08:00:51;;;;;;;;;;;39.60;55.90;;;;;;5092821;28;19911;-70
2022/07/29 08:03:17;;;;;;;;;;;39.50;56.20;;;;;;5092418;28;19966;-70
2022/07/29 08:05:43;;;;;;;;;;;39.30;57.30;;;;;;5092215;28;19935;-71
2022/07/29 08:08:09;;;;;;;;;;;39.40;57.20;;;;;;5092730;28;20000;-71
2022/07/29 08:10:53;;;;;;;;;;;39.50;56.90;;;;;;5090976;28;19904;-70
2022/07/29 08:13:23;;;;;;;;;;;39.50;56.40;;;;;;5090825;28;19904;-71
2022/07/29 08:15:57;;;;;;;;;;;39.60;56.70;;;;;;5092880;28;19991;-71
2022/07/29 08:18:24;;;;;;;;;;;39.60;56.00;;;;;;5092995;28;19958;-70
2022/07/29 08:20:50;;;;;;;;;;;39.30;56.70;;;;;;5096136;28;19916;-70
2022/07/29 08:23:16;;;;;;;;;;;39.30;57.20;;;;;;5097247;28;19915;-71
2022/07/29 08:25:42;;;;;;;;;;;39.20;57.20;;;;;;5097465;28;19904;-71
2022/07/29 08:28:08;;;;;;;;;;;39.10;57.50;;;;;;5095902;28;20367;-71
2022/07/29 08:30:34;;;;;;;;;;;39.00;57.90;;;;;;5095874;28;19904;-71
2022/07/29 08:33:00;;;;;;;;;;;39.00;58.00;;;;;;5096867;28;20309;-72
2022/07/29 08:35:26;;;;;;;;;;;39.00;58.10;;;;;;5096702;28;20349;-72
2022/07/29 08:37:52;;;;;;;;;;;38.80;57.20;;;;;;5096504;28;19904;-72
2022/07/29 08:40:20;;;;;;;;;;;38.50;57.90;;;;;;5096453;28;19992;-72
2022/07/29 08:42:46;;;;;;;;;;;38.30;58.90;;;;;;5096776;28;20002;-72
2022/07/29 08:45:12;;;;;;;;;;;38.40;59.50;;;;;;5097303;28;20000;-72
2022/07/29 08:47:41;;;;;;;;;;;38.50;59.20;;;;;;5096872;28;19949;-72
2022/07/29 08:50:07;;;;;;;;;;;38.20;60.50;;;;;;5096385;28;19927;-72
2022/07/29 08:52:35;;;;;;;;;;;38.10;61.00;;;;;;5096049;28;20367;-72
2022/07/29 08:55:01;;;;;;;;;;;38.10;60.20;;;;;;5096426;28;19922;-72
2022/07/29 08:57:28;;;;;;;;;;;37.90;60.60;;;;;;5096125;28;19907;-72
2022/07/29 08:59:54;;;;;;;;;;;38.00;60.60;;;;;;5096017;28;19947;-72
2022/07/29 09:02:21;;;;;;;;;;;37.90;60.50;;;;;;5095786;28;19904;-72
2022/07/29 09:04:47;;;;;;;;;;;37.70;61.50;;;;;;5095763;28;19914;-72
2022/07/29 09:07:16;;;;;;;;;;;37.80;62.20;;;;;;5095735;28;19991;-71
2022/07/29 09:09:42;;;;;;;;;;;37.90;62.80;;;;;;5095934;28;19950;-71
2022/07/29 09:12:11;;;;;;;;;;;37.60;63.20;;;;;;5095760;28;19908;-71
2022/07/29 09:14:37;;;;;;;;;;;37.50;63.70;;;;;;5096085;28;20357;-72
2022/07/29 09:17:03;;;;;;;;;;;37.60;63.70;;;;;;5095734;28;19911;-71
2022/07/29 09:19:31;;;;;;;;;;;37.40;63.30;;;;;;5095988;28;19904;-71
2022/07/29 09:21:59;;;;;;;;;;;37.10;64.10;;;;;;5095342;28;19920;-72
2022/07/29 09:24:26;;;;;;;;;;;37.30;64.30;;;;;;5095453;28;19958;-71
2022/07/29 09:26:51;;;;;;;;;;;37.30;65.20;;;;;;5095314;28;19991;-71
2022/07/29 09:29:19;;;;;;;;;;;37.10;65.70;;;;;;5095605;28;19958;-70
2022/07/29 09:31:46;;;;;;;;;;;37.20;65.30;;;;;;5094086;28;19904;-71
2022/07/29 09:34:15;;;;;;;;;;;37.10;65.70;;;;;;5095349;28;19911;-71
2022/07/29 09:36:51;;;;;;;;;;;36.90;65.20;;;;;;5095518;28;19908;-71
2022/07/29 09:39:26;;;;;;;;;;;36.80;66.00;;;;;;5094898;28;19936;-71
2022/07/29 09:41:53;;;;;;;;;;;36.20;66.70;;;;;;5094822;28;19923;-71
2022/07/29 09:44:19;;;;;;;;;;;36.10;67.20;;;;;;5094521;28;19928;-72
2022/07/29 09:47:05;;;;;;;;;;;36.30;66.90;;;;;;5094714;28;19998;-71
2022/07/29 09:49:32;;;;;;;;;;;36.50;66.80;;;;;;5094664;28;19904;-71
2022/07/29 09:52:09;;;;;;;;;;;36.50;67.40;;;;;;5094285;28;19943;-71
2022/07/29 09:54:39;;;;;;;;;;;36.60;68.00;;;;;;5094206;28;19911;-70
2022/07/29 09:57:06;;;;;;;;;;;36.60;67.60;;;;;;5093955;28;20337;-70
2022/07/29 09:59:32;;;;;;;;;;;36.50;67.80;;;;;;5094559;28;20004;-70
2022/07/29 10:01:59;;;;;;;;;;;36.50;68.40;;;;;;5094234;28;19911;-71
2022/07/29 10:04:36;;;;;;;;;;;36.60;68.70;;;;;;5093544;28;19969;-72
2022/07/29 10:07:04;;;;;;;;;;;36.40;67.40;;;;;;5094256;28;19926;-71
2022/07/29 10:09:30;;;;;;;;;;;36.20;67.90;;;;;;5094394;28;19911;-71
2022/07/29 10:12:06;;;;;;;;;;;36.10;68.00;;;;;;5092680;28;19911;-72
2022/07/29 10:14:35;;;;;;;;;;;36.10;68.30;;;;;;5092514;28;20025;-71
2022/07/29 10:17:02;;;;;;;;;;;35.90;69.20;;;;;;5093905;28;19904;-71
2022/07/29 10:19:30;;;;;;;;;;;35.80;68.20;;;;;;5094242;28;20321;-71
2022/07/29 10:21:57;;;;;;;;;;;35.80;68.90;;;;;;5093865;28;19920;-72
2022/07/29 10:24:23;;;;;;;;;;;35.40;68.70;;;;;;5093964;28;20383;-71
2022/07/29 10:26:49;;;;;;;;;;;35.30;70.00;;;;;;5092349;28;19911;-71
2022/07/29 10:29:15;;;;;;;;;;;35.20;70.70;;;;;;5094226;28;19904;-71
2022/07/29 10:31:48;;;;;;;;;;;35.30;70.80;;;;;;5093862;28;19981;-73
2022/07/29 10:34:20;;;;;;;;;;;35.40;70.70;;;;;;5094253;28;20352;-71
2022/07/29 10:36:48;;;;;;;;;;;35.40;71.20;;;;;;5094112;28;19943;-71
2022/07/29 10:39:30;;;;;;;;;;;35.30;72.10;;;;;;5094031;28;19908;-71
2022/07/29 10:42:09;;;;;;;;;;;35.50;72.40;;;;;;5094035;28;19947;-71
2022/07/29 10:44:39;;;;;;;;;;;35.30;72.30;;;;;;5094034;28;19912;-71
2022/07/29 10:47:05;;;;;;;;;;;35.40;73.90;;;;;;5093880;28;19991;-72
2022/07/29 10:49:31;;;;;;;;;;;35.50;73.70;;;;;;5093356;28;19954;-71
2022/07/29 10:52:00;;;;;;;;;;;35.20;75.00;;;;;;5092562;28;20342;-72
2022/07/29 10:54:35;;;;;;;;;;;34.80;75.10;;;;;;5092810;28;19904;-72
2022/07/29 10:57:17;;;;;;;;;;;34.80;75.80;;;;;;5092667;28;19904;-71
2022/07/29 10:59:45;;;;;;;;;;;34.60;76.80;;;;;;5092845;28;19971;-71
2022/07/29 11:02:29;;;;;;;;;;;34.60;78.00;;;;;;5092553;28;19950;-71
2022/07/29 11:04:55;;;;;;;;;;;34.60;78.60;;;;;;5093228;28;20345;-71
2022/07/29 11:07:20;;;;;;;;;;;34.60;78.90;;;;;;5093270;28;19904;-72
2022/07/29 11:10:06;;;;;;;;;;;34.60;80.00;;;;;;5093239;28;20311;-71
2022/07/29 11:12:38;;;;;;;;;;;34.70;80.00;;;;;;5092782;28;19982;-71
2022/07/29 11:15:20;;;;;;;;;;;34.90;79.60;;;;;;5093132;28;19994;-72
2022/07/29 11:17:53;;;;;;;;;;;35.00;79.80;;;;;;5093352;28;20372;-71
2022/07/29 11:20:33;;;;;;;;;;;34.70;81.70;;;;;;5093339;28;19912;-71
2022/07/29 11:23:00;;;;;;;;;;;34.40;83.40;;;;;;5093806;28;19931;-71
2022/07/29 11:25:26;;;;;;;;;;;34.40;82.00;;;;;;5093654;28;19995;-71
2022/07/29 11:27:52;;;;;;;;;;;34.30;82.10;;;;;;5092090;28;20345;-71
2022/07/29 11:30:18;;;;;;;;;;;34.40;83.40;;;;;;5093238;28;20360;-70
2022/07/29 11:32:44;;;;;;;;;;;34.40;84.10;;;;;;5093138;28;19911;-70
2022/07/29 11:35:12;;;;;;;;;;;34.50;83.40;;;;;;5093157;28;20366;-71
2022/07/29 11:37:38;;;;;;;;;;;34.40;83.70;;;;;;5093172;28;19908;-71
2022/07/29 11:40:04;;;;;;;;;;;34.30;82.30;;;;;;5093120;28;19919;-72
2022/07/29 11:42:48;;;;;;;;;;;34.40;82.60;;;;;;5093534;28;19912;-71
2022/07/29 11:45:18;;;;;;;;;;;34.60;81.60;;;;;;5093128;28;20273;-70
2022/07/29 11:47:47;;;;;;;;;;;34.30;84.70;;;;;;5093056;28;19947;-71
2022/07/29 11:50:28;;;;;;;;;;;34.30;84.70;;;;;;5093433;28;19904;-71
2022/07/29 11:52:55;;;;;;;;;;;34.40;85.20;;;;;;5092710;28;19904;-71
2022/07/29 11:55:22;;;;;;;;;;;34.40;87.00;;;;;;5092261;28;19904;-71
2022/07/29 11:57:49;;;;;;;;;;;34.30;86.40;;;;;;5091434;28;19995;-71
2022/07/29 12:00:24;;;;;;;;;;;34.40;86.50;;;;;;5092758;28;20360;-71
2022/07/29 12:02:50;;;;;;;;;;;34.30;84.60;;;;;;5092040;28;20208;-71
2022/07/29 12:05:17;;;;;;;;;;;34.30;87.20;;;;;;5092741;28;20390;-71
2022/07/29 12:07:43;;;;;;;;;;;34.60;88.40;;;;;;5092909;28;19911;-71
2022/07/29 12:10:08;;;;;;;;;;;34.70;87.60;;;;;;5092973;28;20256;-71
2022/07/29 12:12:35;;;;;;;;;;;34.70;87.80;;;;;;5092803;28;20008;-71
2022/07/29 12:15:12;;;;;;;;;;;34.60;88.50;;;;;;5092593;28;20069;-72
2022/07/29 12:17:39;;;;;;;;;;;34.70;85.80;;;;;;5093124;28;19904;-71
2022/07/29 12:20:05;;;;;;;;;;;34.70;85.20;;;;;;5092525;28;19919;-71
2022/07/29 12:22:32;;;;;;;;;;;34.80;82.50;;;;;;5092835;28;19923;-71
2022/07/29 12:25:02;;;;;;;;;;;34.70;83.30;;;;;;5092807;28;19915;-71
2022/07/29 12:27:28;;;;;;;;;;;34.70;83.70;;;;;;5092479;28;19908;-71
2022/07/29 12:30:02;;;;;;;;;;;34.80;81.10;;;;;;5092767;28;20447;-71
2022/07/29 12:32:39;;;;;;;;;;;34.80;78.60;;;;;;5092410;28;19904;-72
2022/07/29 12:35:07;;;;;;;;;;;34.80;79.70;;;;;;5093021;28;19904;-71
2022/07/29 12:37:37;;;;;;;;;;;34.90;81.80;;;;;;5092632;28;19904;-71
2022/07/29 12:40:03;;;;;;;;;;;34.90;82.50;;;;;;5092886;28;19986;-71
2022/07/29 12:42:29;;;;;;;;;;;34.80;83.70;;;;;;5092561;28;19919;-71
2022/07/29 12:44:55;;;;;;;;;;;35.00;83.60;;;;;;5092219;28;19904;-71
2022/07/29 12:47:21;;;;;;;;;;;35.00;84.70;;;;;;5092615;28;19912;-72
2022/07/29 12:49:47;;;;;;;;;;;35.10;84.60;;;;;;5092003;28;20316;-71
2022/07/29 12:52:26;;;;;;;;;;;35.00;84.30;;;;;;5091751;28;20220;-72
2022/07/29 12:54:52;;;;;;;;;;;34.90;83.70;;;;;;5091943;28;19908;-71
2022/07/29 12:57:18;;;;;;;;;;;35.00;83.90;;;;;;5092213;28;19919;-71
2022/07/29 12:59:44;;;;;;;;;;;35.10;84.30;;;;;;5092131;28;19986;-70
2022/07/29 13:02:22;;;;;;;;;;;35.10;84.20;;;;;;5092352;28;20002;-71
2022/07/29 13:04:58;;;;;;;;;;;34.90;85.40;;;;;;5091824;28;20417;-71
2022/07/29 13:07:26;;;;;;;;;;;34.80;86.00;;;;;;5096192;28;19904;-71
2022/07/29 13:09:53;;;;;;;;;;;34.70;85.70;;;;;;5095582;28;20022;-71
2022/07/29 13:12:20;;;;;;;;;;;34.10;88.20;;;;;;5096060;28;20368;-71
2022/07/29 13:14:47;;;;;;;;;;;34.00;87.90;;;;;;5095650;28;20318;-71
2022/07/29 13:17:23;;;;;;;;;;;34.20;88.60;;;;;;5094273;28;20376;-71
2022/07/29 13:19:49;;;;;;;;;;;34.30;89.10;;;;;;5095924;28;19912;-71
2022/07/29 13:22:19;;;;;;;;;;;34.40;89.80;;;;;;5096722;28;19907;-71
2022/07/29 13:24:55;;;;;;;;;;;34.50;89.90;;;;;;5096179;28;19904;-71
2022/07/29 13:27:22;;;;;;;;;;;34.40;89.20;;;;;;5096471;28;19911;-71
2022/07/29 13:29:51;;;;;;;;;;;34.30;89.10;;;;;;5096407;28;19903;-72
2022/07/29 13:32:16;;;;;;;;;;;34.00;90.20;;;;;;5096254;28;19904;-71
2022/07/29 13:34:42;;;;;;;;;;;34.30;90.50;;;;;;5094858;28;19927;-72
2022/07/29 13:37:08;;;;;;;;;;;34.30;90.70;;;;;;5096678;28;19915;-71
2022/07/29 13:39:34;;;;;;;;;;;34.30;90.90;;;;;;5096368;28;20249;-72
2022/07/29 13:42:00;;;;;;;;;;;34.50;90.80;;;;;;5096003;28;19908;-71
2022/07/29 13:44:25;;;;;;;;;;;34.30;91.00;;;;;;5096190;28;20033;-71
2022/07/29 13:46:51;;;;;;;;;;;34.20;91.10;;;;;;5095840;28;20437;-71
2022/07/29 13:49:17;;;;;;;;;;;34.10;91.30;;;;;;5095812;28;20080;-71
2022/07/29 13:51:43;;;;;;;;;;;34.10;91.70;;;;;;5095178;28;20002;-72
2022/07/29 13:54:09;;;;;;;;;;;34.30;91.90;;;;;;5095258;28;19904;-71
2022/07/29 13:56:34;;;;;;;;;;;34.50;92.20;;;;;;5095385;28;19925;-71
2022/07/29 13:59:00;;;;;;;;;;;34.50;92.30;;;;;;5093785;28;19911;-72
2022/07/29 14:01:27;;;;;;;;;;;34.40;92.30;;;;;;5095468;28;20245;-71
2022/07/29 14:03:53;;;;;;;;;;;34.10;93.30;;;;;;5095107;28;20374;-71
2022/07/29 14:06:18;;;;;;;;;;;34.10;93.80;;;;;;5094924;28;19904;-72
2022/07/29 14:08:44;;;;;;;;;;;34.30;92.80;;;;;;5095083;28;20343;-71
2022/07/29 14:11:10;;;;;;;;;;;34.30;93.90;;;;;;5095186;28;19904;-71
2022/07/29 14:13:36;;;;;;;;;;;34.40;93.50;;;;;;5094899;28;20245;-71
2022/07/29 14:16:02;;;;;;;;;;;34.50;93.80;;;;;;5094893;28;19986;-71
2022/07/29 14:18:28;;;;;;;;;;;34.50;93.60;;;;;;5094730;28;20331;-71
2022/07/29 14:20:53;;;;;;;;;;;34.50;93.10;;;;;;5094681;28;19916;-72
2022/07/29 14:23:19;;;;;;;;;;;34.60;93.00;;;;;;5093417;28;19912;-71
2022/07/29 14:25:45;;;;;;;;;;;34.50;93.90;;;;;;5095151;28;19904;-71
2022/07/29 14:28:11;;;;;;;;;;;34.50;93.70;;;;;;5094980;28;20011;-71